Terminal Aerodrome Forecast
Issued by NWS

Home | Current Version | Previous Version | Text Only | Print | Product List | Glossary Off
Versions: 1 2 3 4 5 6 7 8 9 10 11 12

000
FTUS42 KMHX 211134
TAFISO
TAF
KISO 211134Z 2112/2212 03004KT P6SM SKC
      TEMPO 2112/2113 5SM BR
     FM211600 05005KT P6SM SCT050
     FM220500 VRB02KT P6SM SKC
      AMD LTD TO CLD VIS AND WIND=

USA.gov is the U.S. government's official web portal to all federal, state and local government web resources and services.